Time;durP1;ratioP1;P1;durP2;ratioP2;P2;SDS_P1;SDS_P2;PMS_P1;PMS_P2;Temp;Humidity;BMP_temperature;BMP_pressure;BME280_temperature;BME280_humidity;BME280_pressure;Samples;Min_cycle;Max_cycle;Signal;HPM_P1;HPM_P2
2023/10/30 00:00:39;;;;;;;16.65;3.40;;;15.10;99.90;;;;;;4266376;27;20130;-62
2023/10/30 00:02:42;;;;;;;12.70;2.95;;;15.10;99.90;;;;;;4264632;27;20054;-59
2023/10/30 00:04:44;;;;;;;10.68;2.92;;;15.10;99.90;;;;;;4266315;27;20039;-59
2023/10/30 00:06:46;;;;;;;15.02;3.40;;;15.00;99.90;;;;;;4265537;27;20046;-59
2023/10/30 00:08:48;;;;;;;13.45;3.17;;;15.00;99.90;;;;;;4266665;27;20101;-58
2023/10/30 00:10:50;;;;;;;12.40;3.40;;;15.10;99.90;;;;;;4266857;27;20180;-65
2023/10/30 00:12:52;;;;;;;12.55;3.35;;;15.00;99.90;;;;;;4264297;27;20046;-61
2023/10/30 00:14:57;;;;;;;11.55;3.63;;;14.90;99.90;;;;;;4264696;27;20041;-61
2023/10/30 00:16:59;;;;;;;10.82;2.95;;;15.00;99.90;;;;;;4264494;27;20484;-61
2023/10/30 00:19:03;;;;;;;11.23;3.13;;;15.00;99.90;;;;;;4264427;27;20075;-57
2023/10/30 00:21:05;;;;;;;15.18;3.67;;;14.90;99.90;;;;;;4264541;27;20480;-58
2023/10/30 00:23:07;;;;;;;14.15;3.30;;;14.90;99.90;;;;;;4265490;27;20066;-57
2023/10/30 00:25:09;;;;;;;16.67;3.65;;;15.00;99.90;;;;;;4264851;27;20039;-56
2023/10/30 00:27:12;;;;;;;7.80;2.50;;;14.90;99.90;;;;;;4264071;27;20092;-58
2023/10/30 00:29:14;;;;;;;17.10;3.63;;;14.90;99.90;;;;;;4264538;27;20103;-60
2023/10/30 00:31:17;;;;;;;15.02;3.58;;;14.90;99.90;;;;;;4264551;27;20369;-60
2023/10/30 00:33:19;;;;;;;12.32;3.30;;;14.90;99.90;;;;;;4264696;27;20051;-58
2023/10/30 00:35:21;;;;;;;13.48;3.80;;;14.80;99.90;;;;;;4264931;27;20062;-58
2023/10/30 00:37:23;;;;;;;16.40;3.00;;;14.70;99.90;;;;;;4264710;27;20047;-58
2023/10/30 00:39:27;;;;;;;14.18;2.90;;;14.80;99.90;;;;;;4264651;27;20077;-57
2023/10/30 00:41:29;;;;;;;13.57;3.50;;;14.70;99.90;;;;;;4264370;27;20544;-58
2023/10/30 00:43:31;;;;;;;15.50;3.20;;;14.70;99.90;;;;;;4264371;27;20560;-58
2023/10/30 00:45:33;;;;;;;13.65;3.35;;;14.60;99.90;;;;;;4264278;27;20126;-57
2023/10/30 00:47:38;;;;;;;13.10;3.17;;;14.60;99.90;;;;;;4264227;27;20063;-58
2023/10/30 00:49:40;;;;;;;12.43;2.97;;;14.60;99.90;;;;;;4264279;27;20046;-60
2023/10/30 00:51:42;;;;;;;16.77;3.72;;;14.60;99.90;;;;;;4264324;27;20043;-58
2023/10/30 00:53:46;;;;;;;12.60;2.88;;;14.70;99.90;;;;;;4264699;27;20062;-59
2023/10/30 00:55:49;;;;;;;13.88;3.15;;;14.70;99.90;;;;;;4264208;27;20042;-57
2023/10/30 00:57:54;;;;;;;16.33;3.28;;;14.70;99.90;;;;;;4264200;27;20134;-60
2023/10/30 00:59:56;;;;;;;12.38;3.10;;;14.70;99.90;;;;;;4264586;27;20070;-57
2023/10/30 01:01:58;;;;;;;14.70;3.60;;;14.70;99.90;;;;;;4264763;27;20476;-56
2023/10/30 01:04:02;;;;;;;14.52;2.80;;;14.70;99.90;;;;;;4264519;27;20056;-56
2023/10/30 01:06:05;;;;;;;15.98;3.28;;;14.70;99.90;;;;;;4264573;27;20047;-57
2023/10/30 01:08:08;;;;;;;10.88;3.05;;;14.70;99.90;;;;;;4264340;27;20488;-60
2023/10/30 01:10:11;;;;;;;15.25;3.03;;;14.70;99.90;;;;;;4264528;27;20369;-56
2023/10/30 01:12:13;;;;;;;13.48;3.38;;;14.70;99.90;;;;;;4264164;27;20507;-56
2023/10/30 01:14:15;;;;;;;12.32;3.42;;;14.60;99.90;;;;;;4266381;27;20043;-60
2023/10/30 01:16:17;;;;;;;15.45;3.70;;;14.50;99.90;;;;;;4269680;27;20063;-56
2023/10/30 01:18:19;;;;;;;12.60;3.72;;;14.60;99.90;;;;;;4268993;27;20400;-64
2023/10/30 01:20:23;;;;;;;18.90;3.58;;;14.50;99.90;;;;;;4267326;27;20054;-59
2023/10/30 01:22:25;;;;;;;18.98;4.00;;;14.60;99.90;;;;;;4267240;27;20065;-56
2023/10/30 01:24:27;;;;;;;13.40;3.67;;;14.60;99.90;;;;;;4267065;27;20073;-57
2023/10/30 01:26:29;;;;;;;14.52;3.15;;;14.60;99.90;;;;;;4267176;27;20122;-60
2023/10/30 01:28:31;;;;;;;18.30;3.75;;;14.60;99.90;;;;;;4267925;27;20407;-59
2023/10/30 01:30:33;;;;;;;18.83;3.08;;;14.50;99.90;;;;;;4267563;27;20048;-58
2023/10/30 01:32:36;;;;;;;16.50;3.20;;;14.50;99.90;;;;;;4267117;27;20168;-59
2023/10/30 01:34:38;;;;;;;13.80;3.50;;;14.50;99.90;;;;;;4267229;27;20057;-60
2023/10/30 01:36:42;;;;;;;14.55;2.97;;;14.50;99.90;;;;;;4267793;27;20053;-59
2023/10/30 01:38:44;;;;;;;15.52;3.17;;;14.60;99.90;;;;;;4267474;27;20086;-57
2023/10/30 01:40:47;;;;;;;10.13;2.80;;;14.50;99.90;;;;;;4268556;27;20067;-56
2023/10/30 01:42:49;;;;;;;10.98;3.17;;;14.50;99.90;;;;;;4267409;27;20073;-59
2023/10/30 01:44:55;;;;;;;11.77;2.70;;;14.50;99.90;;;;;;4267981;27;20039;-58
2023/10/30 01:46:57;;;;;;;15.85;3.78;;;14.50;99.90;;;;;;4267612;27;20047;-60
2023/10/30 01:48:59;;;;;;;11.65;3.25;;;14.50;99.90;;;;;;4267138;27;20135;-59
2023/10/30 01:51:04;;;;;;;17.20;3.45;;;14.50;99.90;;;;;;4266942;27;20042;-58
2023/10/30 01:53:08;;;;;;;13.57;3.25;;;14.40;99.90;;;;;;4266680;27;20063;-59
2023/10/30 01:55:10;;;;;;;16.75;3.75;;;14.40;99.90;;;;;;4266938;27;20092;-59
2023/10/30 01:57:13;;;;;;;16.13;3.22;;;14.40;99.90;;;;;;4267025;27;20470;-58
2023/10/30 01:59:15;;;;;;;14.80;4.03;;;14.40;99.90;;;;;;4266302;27;20403;-58
2023/10/30 02:01:17;;;;;;;12.32;3.45;;;14.40;99.90;;;;;;4266514;27;20038;-58
2023/10/30 02:03:19;;;;;;;13.45;3.40;;;14.30;99.90;;;;;;4266429;27;20043;-60
2023/10/30 02:05:22;;;;;;;12.80;2.92;;;14.40;99.90;;;;;;4266235;27;20138;-57
2023/10/30 02:07:24;;;;;;;13.38;3.45;;;14.40;99.90;;;;;;4266818;27;20069;-59
2023/10/30 02:09:28;;;;;;;14.68;3.53;;;14.40;99.90;;;;;;4247687;27;20047;-57
2023/10/30 02:11:30;;;;;;;14.95;3.20;;;14.30;99.90;;;;;;4266378;27;20071;-59
2023/10/30 02:13:32;;;;;;;12.43;3.38;;;14.30;99.90;;;;;;4267405;27;20049;-59
2023/10/30 02:15:34;;;;;;;12.23;3.30;;;14.30;99.90;;;;;;4266796;27;20046;-58
2023/10/30 02:17:38;;;;;;;15.48;3.45;;;14.30;99.90;;;;;;4266374;27;20038;-56
2023/10/30 02:19:40;;;;;;;15.05;3.17;;;14.40;99.90;;;;;;4266149;27;20050;-60
2023/10/30 02:21:42;;;;;;;16.05;3.15;;;14.40;99.90;;;;;;4266388;27;20050;-59
2023/10/30 02:23:44;;;;;;;11.25;3.15;;;14.40;99.90;;;;;;4247206;27;20126;-59
2023/10/30 02:25:48;;;;;;;19.58;3.25;;;14.30;99.90;;;;;;4265784;27;20476;-60
2023/10/30 02:27:50;;;;;;;14.05;3.20;;;14.20;99.90;;;;;;4266060;27;20047;-57
2023/10/30 02:29:52;;;;;;;11.73;3.13;;;14.20;99.90;;;;;;4266410;27;20086;-60
2023/10/30 02:31:54;;;;;;;14.10;3.17;;;14.30;99.90;;;;;;4265873;27;20054;-57
2023/10/30 02:33:56;;;;;;;12.93;3.33;;;14.30;99.90;;;;;;4265955;27;20538;-60
2023/10/30 02:35:59;;;;;;;13.75;3.10;;;14.20;99.90;;;;;;4265801;27;20043;-60
2023/10/30 02:38:01;;;;;;;12.82;3.05;;;14.20;99.90;;;;;;4265589;27;20138;-60
2023/10/30 02:40:03;;;;;;;17.15;3.78;;;14.10;99.90;;;;;;4265715;27;20107;-58
2023/10/30 02:42:08;;;;;;;13.10;3.25;;;14.20;99.90;;;;;;4265681;27;20130;-58
2023/10/30 02:44:10;;;;;;;17.90;3.67;;;14.10;99.90;;;;;;4266208;27;20043;-57
2023/10/30 02:46:12;;;;;;;11.63;2.53;;;14.10;99.90;;;;;;4266279;27;20043;-57
2023/10/30 02:48:14;;;;;;;9.57;2.90;;;14.10;99.90;;;;;;4267067;27;20047;-63
2023/10/30 02:50:16;;;;;;;18.50;3.33;;;14.10;99.90;;;;;;4266835;27;20057;-58
2023/10/30 02:52:18;;;;;;;15.40;3.22;;;14.10;99.90;;;;;;4266045;27;20125;-56
2023/10/30 02:54:20;;;;;;;12.57;2.97;;;14.10;99.90;;;;;;4265928;27;20408;-57
2023/10/30 02:56:23;;;;;;;11.32;2.95;;;14.20;99.90;;;;;;4265648;27;20050;-58
2023/10/30 02:58:26;;;;;;;13.35;3.40;;;14.20;99.90;;;;;;4230270;28;20055;-58
2023/10/30 03:00:28;;;;;;;19.40;3.17;;;14.10;99.90;;;;;;4265663;27;20054;-58
2023/10/30 03:02:30;;;;;;;9.70;2.95;;;14.20;99.90;;;;;;4265765;27;20076;-58
2023/10/30 03:04:35;;;;;;;14.65;2.58;;;14.20;99.90;;;;;;4266057;27;20061;-64
2023/10/30 03:06:37;;;;;;;13.25;2.42;;;14.30;99.90;;;;;;4265241;27;20129;-58
2023/10/30 03:08:39;;;;;;;13.38;2.97;;;14.30;99.90;;;;;;4246788;27;20054;-58
2023/10/30 03:10:41;;;;;;;12.00;3.03;;;14.20;99.90;;;;;;4265635;27;20053;-58
2023/10/30 03:12:43;;;;;;;13.48;3.20;;;14.20;99.90;;;;;;4265475;27;20051;-60
2023/10/30 03:14:47;;;;;;;14.98;2.75;;;14.20;99.90;;;;;;4265059;27;20507;-57
2023/10/30 03:16:50;;;;;;;12.15;2.75;;;14.20;99.90;;;;;;4265509;27;20128;-58
2023/10/30 03:18:54;;;;;;;;;;;14.30;99.90;;;;;;4265784;27;20047;-58
2023/10/30 03:20:56;;;;;;;14.10;3.38;;;14.20;99.90;;;;;;4265054;27;19961;-58
2023/10/30 03:22:58;;;;;;;9.40;2.55;;;14.10;99.90;;;;;;4265520;27;20050;-57
2023/10/30 03:25:00;;;;;;;8.63;2.67;;;14.20;99.90;;;;;;4265038;27;20050;-58
2023/10/30 03:27:03;;;;;;;10.60;2.47;;;14.10;99.90;;;;;;4265325;27;20061;-59
2023/10/30 03:29:05;;;;;;;13.82;2.78;;;14.10;99.90;;;;;;4265023;27;20144;-57
2023/10/30 03:31:11;;;;;;;11.02;2.83;;;14.20;99.90;;;;;;4265331;27;20114;-57
2023/10/30 03:33:14;;;;;;;11.02;3.15;;;14.20;99.90;;;;;;4265018;27;20491;-57
2023/10/30 03:35:16;;;;;;;10.25;2.90;;;14.20;99.90;;;;;;4264633;27;20121;-57
2023/10/30 03:37:18;;;;;;;11.93;3.17;;;14.10;99.90;;;;;;4264838;27;20042;-59
2023/10/30 03:39:20;;;;;;;12.68;3.03;;;14.10;99.90;;;;;;4265068;27;20069;-59
2023/10/30 03:41:23;;;;;;;17.25;2.67;;;14.20;99.90;;;;;;4264775;27;20057;-59
2023/10/30 03:43:25;;;;;;;12.38;2.95;;;14.20;99.90;;;;;;4264788;27;20460;-56
2023/10/30 03:45:27;;;;;;;12.60;2.90;;;14.20;99.90;;;;;;4264694;27;20051;-58
2023/10/30 03:47:31;;;;;;;11.10;2.70;;;14.20;99.90;;;;;;4264905;27;20062;-56
2023/10/30 03:49:33;;;;;;;9.00;2.55;;;14.20;99.90;;;;;;4264584;27;20053;-56
2023/10/30 03:51:35;;;;;;;12.60;2.70;;;14.30;99.90;;;;;;4264919;27;20384;-56
2023/10/30 03:53:37;;;;;;;13.52;3.50;;;14.20;99.90;;;;;;4265930;27;20046;-56
2023/10/30 03:55:39;;;;;;;12.00;3.00;;;14.30;99.90;;;;;;4265569;27;20452;-61
2023/10/30 03:57:43;;;;;;;15.85;3.00;;;14.30;99.90;;;;;;4265238;27;20401;-59
2023/10/30 03:59:46;;;;;;;14.25;2.72;;;14.20;99.90;;;;;;4264984;27;20039;-58
2023/10/30 04:01:49;;;;;;;11.93;3.20;;;14.20;99.90;;;;;;4264853;27;20051;-62
2023/10/30 04:03:53;;;;;;;14.75;3.53;;;14.20;99.90;;;;;;4264489;27;20441;-57
2023/10/30 04:06:00;;;;;;;11.63;3.53;;;14.20;99.90;;;;;;4265040;27;20099;-60
2023/10/30 04:08:02;;;;;;;16.52;3.15;;;14.20;99.90;;;;;;4265345;27;20038;-56
2023/10/30 04:10:05;;;;;;;12.18;2.92;;;14.10;99.90;;;;;;4264751;27;20039;-57
2023/10/30 04:12:07;;;;;;;16.05;2.90;;;14.20;99.90;;;;;;4265180;27;20047;-57
2023/10/30 04:14:12;;;;;;;17.35;3.75;;;14.10;99.90;;;;;;4264991;27;20046;-56
2023/10/30 04:16:15;;;;;;;9.75;2.58;;;14.10;99.90;;;;;;4267681;27;20053;-58
2023/10/30 04:18:18;;;;;;;14.55;3.30;;;14.10;99.90;;;;;;4266849;27;20050;-60
2023/10/30 04:20:21;;;;;;;10.60;3.17;;;14.20;99.90;;;;;;4266615;27;20073;-56
2023/10/30 04:22:23;;;;;;;11.73;3.00;;;14.20;99.90;;;;;;4246501;27;20546;-59
2023/10/30 04:24:25;;;;;;;11.73;3.25;;;14.20;99.90;;;;;;4264837;27;20063;-56
2023/10/30 04:26:27;;;;;;;13.98;2.85;;;14.20;99.90;;;;;;4264225;27;20070;-59
2023/10/30 04:28:30;;;;;;;10.60;2.90;;;14.20;99.90;;;;;;4264218;27;20049;-60
2023/10/30 04:30:32;;;;;;;10.07;2.60;;;14.20;99.90;;;;;;4264606;27;20073;-59
2023/10/30 04:32:34;;;;;;;9.43;2.97;;;14.20;99.90;;;;;;4264174;27;20043;-59
2023/10/30 04:34:36;;;;;;;11.63;3.20;;;14.30;99.90;;;;;;4245744;27;20055;-60
2023/10/30 04:36:40;;;;;;;10.15;3.38;;;14.40;99.90;;;;;;4264595;27;20074;-57
2023/10/30 04:38:42;;;;;;;14.68;3.28;;;14.30;99.90;;;;;;4264221;27;20087;-57
2023/10/30 04:40:44;;;;;;;13.32;3.83;;;14.20;99.90;;;;;;4264577;27;20077;-56
2023/10/30 04:42:46;;;;;;;14.88;3.15;;;14.20;99.90;;;;;;4263967;27;20474;-59
2023/10/30 04:44:48;;;;;;;13.38;3.38;;;14.20;99.90;;;;;;4264042;27;20043;-60
2023/10/30 04:46:50;;;;;;;14.10;3.25;;;14.20;99.90;;;;;;4264290;27;20466;-56
2023/10/30 04:48:52;;;;;;;10.85;2.90;;;14.10;99.90;;;;;;4265372;27;20114;-55
2023/10/30 04:50:54;;;;;;;8.48;2.80;;;14.20;99.90;;;;;;4267617;27;20081;-59
2023/10/30 04:52:58;;;;;;;17.98;3.10;;;14.30;99.90;;;;;;4267654;27;20376;-59
2023/10/30 04:55:00;;;;;;;9.82;3.10;;;14.30;99.90;;;;;;4267690;27;20042;-56
2023/10/30 04:57:02;;;;;;;8.77;2.72;;;14.30;99.90;;;;;;4267717;27;20483;-58
2023/10/30 04:59:04;;;;;;;12.25;3.33;;;14.30;99.90;;;;;;4267526;27;20108;-59
2023/10/30 05:01:10;;;;;;;14.63;3.40;;;14.20;99.90;;;;;;4249254;27;20455;-59
2023/10/30 05:03:12;;;;;;;12.45;2.97;;;14.20;99.90;;;;;;4231699;28;20134;-58
2023/10/30 05:05:14;;;;;;;12.77;3.58;;;14.30;99.90;;;;;;4267083;27;20095;-58
2023/10/30 05:07:16;;;;;;;10.57;3.50;;;14.30;99.90;;;;;;4248967;27;20101;-58
2023/10/30 05:09:19;;;;;;;12.75;3.38;;;14.30;99.90;;;;;;4267247;27;20130;-57
2023/10/30 05:11:21;;;;;;;12.48;3.80;;;14.30;99.90;;;;;;4267356;27;20050;-58
2023/10/30 05:13:23;;;;;;;13.20;3.38;;;14.20;99.90;;;;;;4267219;27;20543;-58
2023/10/30 05:15:25;;;;;;;8.77;2.80;;;14.20;99.90;;;;;;4266918;27;20123;-58
2023/10/30 05:17:29;;;;;;;9.93;2.80;;;14.10;99.90;;;;;;4266552;27;20046;-59
2023/10/30 05:19:31;;;;;;;10.32;3.00;;;14.20;99.90;;;;;;4267269;27;20154;-59
2023/10/30 05:21:33;;;;;;;9.57;2.83;;;14.10;99.90;;;;;;4267044;27;20415;-59
2023/10/30 05:23:35;;;;;;;17.13;2.88;;;14.10;99.90;;;;;;4265691;27;20046;-60
2023/10/30 05:25:39;;;;;;;12.05;2.92;;;14.10;99.90;;;;;;4267090;27;20052;-59
2023/10/30 05:27:44;;;;;;;9.07;2.40;;;14.20;99.90;;;;;;4266808;27;20269;-59
2023/10/30 05:29:46;;;;;;;12.13;3.10;;;14.20;99.90;;;;;;4267027;27;20051;-59
2023/10/30 05:31:49;;;;;;;10.35;2.88;;;14.10;99.90;;;;;;4266299;27;20087;-58
2023/10/30 05:33:51;;;;;;;11.05;2.53;;;14.10;99.90;;;;;;4266951;27;20050;-58
2023/10/30 05:35:53;;;;;;;8.82;2.45;;;14.10;99.90;;;;;;4266959;27;20507;-58
2023/10/30 05:37:56;;;;;;;9.45;3.10;;;14.10;99.90;;;;;;4266810;27;20126;-59
2023/10/30 05:39:58;;;;;;;10.68;2.75;;;14.10;99.90;;;;;;4266774;27;20043;-59
2023/10/30 05:42:02;;;;;;;11.93;3.08;;;14.10;99.90;;;;;;4266573;27;20046;-58
2023/10/30 05:44:04;;;;;;;8.00;2.47;;;14.10;99.90;;;;;;4267136;27;20091;-58
2023/10/30 05:46:06;;;;;;;10.48;2.55;;;14.10;99.90;;;;;;4266479;27;20054;-58
2023/10/30 05:48:08;;;;;;;10.27;2.75;;;13.90;99.90;;;;;;4266430;27;20043;-59
2023/10/30 05:50:10;;;;;;;9.52;2.47;;;14.10;99.90;;;;;;4266630;27;20057;-58
2023/10/30 05:52:12;;;;;;;14.05;3.50;;;14.10;99.90;;;;;;4266578;27;20073;-58
2023/10/30 05:54:15;;;;;;;8.98;4.90;;;14.20;99.90;;;;;;4266896;27;20078;-59
2023/10/30 05:56:17;;;;;;;10.32;2.63;;;14.20;99.90;;;;;;4266616;27;20091;-58
2023/10/30 05:58:20;;;;;;;9.10;2.40;;;14.10;99.90;;;;;;4266510;27;20125;-59
2023/10/30 06:00:23;;;;;;;6.13;2.28;;;14.10;99.90;;;;;;4265530;27;20125;-59
2023/10/30 06:02:25;;;;;;;11.50;2.83;;;14.20;99.90;;;;;;4266347;27;20054;-59
2023/10/30 06:04:27;;;;;;;9.15;2.35;;;14.10;99.90;;;;;;4266776;27;20042;-59
2023/10/30 06:06:30;;;;;;;9.00;2.55;;;14.10;99.90;;;;;;4266541;27;20047;-59
2023/10/30 06:08:32;;;;;;;11.50;2.30;;;14.10;99.90;;;;;;4266300;27;20835;-59
2023/10/30 06:10:34;;;;;;;7.93;2.28;;;14.10;99.90;;;;;;4266284;27;20053;-60
2023/10/30 06:12:36;;;;;;;10.52;2.20;;;14.10;99.90;;;;;;4266448;27;20121;-59
2023/10/30 06:14:39;;;;;;;9.13;2.30;;;14.20;99.90;;;;;;4266059;27;20068;-59
2023/10/30 06:16:43;;;;;;;6.82;2.03;;;14.20;99.90;;;;;;4266403;27;20061;-59
2023/10/30 06:18:45;;;;;;;6.53;2.47;;;14.20;99.90;;;;;;4266094;27;20046;-59
2023/10/30 06:20:47;;;;;;;9.45;2.63;;;14.20;99.90;;;;;;4265918;27;20057;-59
2023/10/30 06:22:49;;;;;;;7.90;2.63;;;14.20;99.90;;;;;;4266065;27;20050;-59
2023/10/30 06:24:51;;;;;;;8.60;2.42;;;14.10;99.90;;;;;;4265866;27;20439;-59
2023/10/30 06:26:53;;;;;;;8.95;3.00;;;14.10;99.90;;;;;;4266040;27;20047;-59
2023/10/30 06:28:56;;;;;;;7.68;2.55;;;14.10;99.90;;;;;;4265644;27;20051;-59
2023/10/30 06:30:59;;;;;;;9.52;2.50;;;14.10;99.90;;;;;;4265640;27;20046;-59
2023/10/30 06:33:02;;;;;;;8.77;2.67;;;14.20;99.90;;;;;;4266040;27;20045;-59
2023/10/30 06:35:06;;;;;;;4.95;1.70;;;14.20;99.90;;;;;;4265633;27;20070;-59
2023/10/30 06:37:09;;;;;;;10.48;2.92;;;14.20;99.90;;;;;;4266124;27;20396;-59
2023/10/30 06:39:13;;;;;;;7.60;2.45;;;14.30;99.90;;;;;;4265835;27;20042;-59
2023/10/30 06:41:15;;;;;;;6.90;2.25;;;14.30;99.90;;;;;;4266071;27;20057;-59
2023/10/30 06:43:17;;;;;;;9.15;2.65;;;14.30;99.90;;;;;;4265313;27;20068;-59
2023/10/30 06:45:19;;;;;;;9.13;2.20;;;14.20;99.90;;;;;;4265694;27;20085;-59
2023/10/30 06:47:22;;;;;;;10.88;2.88;;;14.20;99.90;;;;;;4265054;27;20043;-63
2023/10/30 06:49:26;;;;;;;8.98;2.67;;;14.10;99.90;;;;;;4265717;27;20520;-59
2023/10/30 06:51:28;;;;;;;9.73;2.55;;;14.10;99.90;;;;;;4265818;27;20043;-59
2023/10/30 06:53:30;;;;;;;5.18;2.53;;;14.10;99.90;;;;;;4265562;27;20039;-59
2023/10/30 06:55:35;;;;;;;9.57;2.28;;;14.20;99.90;;;;;;4265551;27;20401;-60
2023/10/30 06:57:37;;;;;;;8.07;2.80;;;14.20;99.90;;;;;;4265679;27;20054;-56
2023/10/30 06:59:41;;;;;;;5.18;1.98;;;14.30;99.90;;;;;;4265331;27;20415;-59
2023/10/30 07:01:43;;;;;;;7.05;2.60;;;14.30;99.90;;;;;;4265267;27;20050;-58
2023/10/30 07:03:47;;;;;;;10.73;2.70;;;14.30;99.90;;;;;;4265714;27;20247;-57
2023/10/30 07:05:49;;;;;;;8.07;2.30;;;14.40;99.90;;;;;;4265745;27;20042;-56
2023/10/30 07:07:51;;;;;;;5.35;2.40;;;14.40;99.90;;;;;;4265655;27;20042;-56
2023/10/30 07:09:54;;;;;;;11.90;3.03;;;14.30;99.90;;;;;;4265615;27;20399;-57
2023/10/30 07:11:56;;;;;;;8.18;2.35;;;14.40;99.90;;;;;;4264596;27;20047;-56
2023/10/30 07:13:58;;;;;;;7.55;2.67;;;14.40;99.90;;;;;;4265272;27;20395;-56
2023/10/30 07:16:00;;;;;;;10.57;2.60;;;14.40;99.90;;;;;;4265377;27;20038;-56
2023/10/30 07:18:03;;;;;;;8.15;2.85;;;14.20;99.90;;;;;;4248382;27;20167;-59
2023/10/30 07:20:08;;;;;;;12.73;3.10;;;14.30;99.90;;;;;;4266438;27;20050;-60
2023/10/30 07:22:10;;;;;;;8.18;2.72;;;14.30;99.90;;;;;;4266128;27;20047;-59
2023/10/30 07:24:12;;;;;;;10.88;2.90;;;14.30;99.90;;;;;;4265207;27;20548;-58
2023/10/30 07:26:16;;;;;;;8.68;3.17;;;14.40;99.90;;;;;;4264803;27;20042;-59
2023/10/30 07:28:18;;;;;;;7.53;2.23;;;14.50;99.90;;;;;;4264249;27;20447;-59
2023/10/30 07:30:23;;;;;;;12.82;3.33;;;14.50;99.90;;;;;;4264917;27;20657;-58
2023/10/30 07:32:25;;;;;;;11.82;2.90;;;14.50;99.90;;;;;;4265273;27;20043;-59
2023/10/30 07:34:27;;;;;;;11.00;3.20;;;14.50;99.90;;;;;;4264856;27;20064;-59
2023/10/30 07:36:30;;;;;;;6.90;2.65;;;14.50;99.90;;;;;;4264776;27;20054;-59
2023/10/30 07:38:33;;;;;;;8.52;2.47;;;14.60;99.90;;;;;;4265018;27;20055;-57
2023/10/30 07:40:35;;;;;;;13.18;2.78;;;14.60;99.90;;;;;;4264842;27;20118;-57
2023/10/30 07:42:39;;;;;;;9.60;2.92;;;14.60;99.90;;;;;;4247737;27;20078;-60
2023/10/30 07:44:41;;;;;;;20.65;4.63;;;14.50;99.90;;;;;;4267368;27;20115;-60
2023/10/30 07:46:44;;;;;;;41.80;6.28;;;14.60;99.90;;;;;;4266022;27;20043;-60
2023/10/30 07:48:46;;;;;;;30.88;5.93;;;14.60;99.90;;;;;;4265260;27;20540;-60
2023/10/30 07:50:48;;;;;;;23.42;4.43;;;14.60;99.90;;;;;;4264551;27;20154;-59
2023/10/30 07:52:51;;;;;;;43.50;5.85;;;14.60;99.90;;;;;;4264803;27;20122;-57
2023/10/30 07:54:53;;;;;;;17.58;4.57;;;14.50;99.90;;;;;;4264670;27;20059;-59
2023/10/30 07:56:55;;;;;;;28.15;5.40;;;14.50;99.90;;;;;;4264406;27;20059;-57
2023/10/30 07:58:57;;;;;;;25.95;4.43;;;14.40;99.90;;;;;;4264968;27;20047;-59
2023/10/30 08:01:00;;;;;;;14.32;3.75;;;14.50;99.90;;;;;;4264761;27;20047;-59
2023/10/30 08:03:03;;;;;;;9.23;3.60;;;14.50;99.90;;;;;;4264556;27;20046;-59
2023/10/30 08:05:06;;;;;;;10.60;3.72;;;14.50;99.90;;;;;;4264918;27;20081;-59
2023/10/30 08:07:08;;;;;;;10.98;3.00;;;14.50;99.90;;;;;;4264915;27;20046;-59
2023/10/30 08:09:12;;;;;;;22.05;4.50;;;14.50;99.90;;;;;;4246296;28;20051;-59
2023/10/30 08:11:14;;;;;;;10.85;3.22;;;14.60;99.90;;;;;;4245873;28;20522;-56
2023/10/30 08:13:16;;;;;;;10.45;3.40;;;14.70;99.90;;;;;;4264529;27;20039;-59
2023/10/30 08:15:18;;;;;;;12.30;3.20;;;14.70;99.90;;;;;;4264536;27;20039;-59
2023/10/30 08:17:20;;;;;;;15.15;3.60;;;14.70;99.90;;;;;;4264486;27;20091;-59
2023/10/30 08:19:22;;;;;;;9.90;3.85;;;14.70;99.90;;;;;;4246115;28;20130;-57
2023/10/30 08:21:24;;;;;;;9.40;3.13;;;14.50;99.90;;;;;;4264633;27;20050;-56
2023/10/30 08:23:26;;;;;;;17.00;3.70;;;14.70;99.90;;;;;;4265869;27;20050;-59
2023/10/30 08:25:29;;;;;;;13.40;4.18;;;14.70;99.90;;;;;;4269384;27;20422;-60
2023/10/30 08:27:32;;;;;;;8.65;3.67;;;14.80;99.90;;;;;;4269575;27;20113;-59
2023/10/30 08:29:34;;;;;;;8.77;3.40;;;14.80;99.90;;;;;;4270052;27;20130;-63
2023/10/30 08:31:38;;;;;;;15.27;3.55;;;14.70;99.90;;;;;;4269353;27;20134;-59
2023/10/30 08:33:40;;;;;;;10.77;3.10;;;14.70;99.90;;;;;;4268655;27;20450;-59
2023/10/30 08:35:43;;;;;;;8.35;3.28;;;14.60;99.90;;;;;;4268274;27;20442;-62
2023/10/30 08:37:45;;;;;;;8.00;3.65;;;14.60;99.90;;;;;;4268175;27;20043;-57
2023/10/30 08:39:47;;;;;;;11.13;3.33;;;14.60;99.90;;;;;;4267429;27;20054;-60
2023/10/30 08:41:51;;;;;;;12.50;3.85;;;14.70;99.90;;;;;;4267282;27;20130;-59
2023/10/30 08:43:53;;;;;;;10.32;3.53;;;14.70;99.90;;;;;;4267615;27;20421;-59
2023/10/30 08:45:55;;;;;;;12.00;3.72;;;14.70;99.90;;;;;;4264316;27;20138;-58
2023/10/30 08:47:57;;;;;;;10.45;3.30;;;14.60;99.90;;;;;;4260875;27;20516;-60
2023/10/30 08:50:18;;;;;;;13.32;4.30;;;14.70;99.90;;;;;;4265372;27;20047;-60
2023/10/30 08:52:21;;;;;;;7.72;3.25;;;14.70;99.90;;;;;;4265162;27;20063;-60
2023/10/30 08:54:23;;;;;;;9.40;3.25;;;14.70;99.90;;;;;;4261049;27;20382;-58
2023/10/30 08:56:25;;;;;;;11.55;3.10;;;14.70;99.90;;;;;;4263150;27;20421;-60
2023/10/30 08:58:29;;;;;;;11.68;3.83;;;14.70;99.90;;;;;;4241655;27;20051;-60
2023/10/30 09:00:31;;;;;;;14.52;3.92;;;14.60;99.90;;;;;;4262386;27;20364;-60
2023/10/30 09:02:33;;;;;;;11.75;3.63;;;14.60;99.90;;;;;;4265729;27;20054;-58
2023/10/30 09:04:36;;;;;;;15.45;3.63;;;14.50;99.90;;;;;;4263138;27;20046;-60
2023/10/30 09:06:39;;;;;;;11.10;3.25;;;14.50;99.90;;;;;;4267311;27;20053;-60
2023/10/30 09:08:41;;;;;;;9.27;3.25;;;14.50;99.90;;;;;;4262230;27;20407;-60
2023/10/30 09:10:43;;;;;;;10.70;3.80;;;14.60;99.90;;;;;;4256506;27;20377;-60
2023/10/30 09:12:45;;;;;;;8.75;3.35;;;14.60;99.90;;;;;;4250834;27;20047;-58
2023/10/30 09:14:49;;;;;;;11.63;3.13;;;14.70;99.90;;;;;;4261889;27;20526;-60
2023/10/30 09:16:51;;;;;;;7.95;2.92;;;14.60;99.90;;;;;;4249761;27;20049;-60
2023/10/30 09:18:54;;;;;;;12.43;2.80;;;14.70;99.90;;;;;;4263260;27;20038;-60
2023/10/30 09:20:57;;;;;;;7.68;3.05;;;14.60;99.90;;;;;;4266862;27;20042;-60
2023/10/30 09:22:59;;;;;;;11.35;2.72;;;14.50;99.90;;;;;;4266299;27;20047;-58
2023/10/30 09:25:01;;;;;;;6.00;2.72;;;14.60;99.90;;;;;;4253962;27;20407;-58
2023/10/30 09:27:03;;;;;;;11.43;2.78;;;14.70;99.90;;;;;;4248440;27;20047;-58
2023/10/30 09:29:05;;;;;;;7.05;2.65;;;14.70;99.90;;;;;;4262411;27;20047;-58
2023/10/30 09:31:08;;;;;;;11.40;3.15;;;14.60;99.90;;;;;;4258184;27;20070;-61
2023/10/30 09:33:11;;;;;;;11.13;2.35;;;14.70;99.90;;;;;;4249576;27;20046;-59
2023/10/30 09:35:13;;;;;;;10.18;2.35;;;14.70;99.90;;;;;;4260498;27;20062;-60
2023/10/30 09:37:15;;;;;;;11.18;2.40;;;14.70;99.90;;;;;;4249445;27;20055;-61
2023/10/30 09:39:17;;;;;;;4.70;2.38;;;14.80;99.90;;;;;;4251857;27;20047;-58
2023/10/30 09:41:20;;;;;;;6.05;2.35;;;14.90;99.90;;;;;;4240727;27;20100;-60
2023/10/30 09:43:25;;;;;;;6.15;2.22;;;14.90;99.90;;;;;;4249046;27;20118;-58
2023/10/30 09:45:27;;;;;;;6.47;2.15;;;14.90;99.90;;;;;;4260058;27;20045;-59
2023/10/30 09:47:31;;;;;;;5.20;2.33;;;15.00;99.90;;;;;;4248598;27;20546;-62
2023/10/30 09:49:35;;;;;;;4.10;2.43;;;15.00;99.90;;;;;;4259955;27;20035;-62
2023/10/30 09:51:39;;;;;;;7.15;2.42;;;15.00;99.90;;;;;;4259407;27;20487;-60
2023/10/30 09:53:42;;;;;;;7.22;2.80;;;15.00;99.90;;;;;;4248916;27;20039;-62
2023/10/30 09:55:47;;;;;;;5.22;2.38;;;15.00;99.90;;;;;;4259641;27;20518;-60
2023/10/30 09:57:53;;;;;;;6.20;2.78;;;14.90;99.90;;;;;;4265866;27;20050;-60
2023/10/30 09:59:56;;;;;;;5.63;2.53;;;14.90;99.90;;;;;;4263759;27;20045;-59
2023/10/30 10:01:59;;;;;;;8.00;2.63;;;14.90;99.90;;;;;;4255862;27;20043;-60
2023/10/30 10:04:03;;;;;;;6.00;2.08;;;15.00;99.90;;;;;;4266038;27;20484;-59
2023/10/30 10:06:06;;;;;;;7.97;1.98;;;15.00;99.90;;;;;;4255028;27;20126;-60
2023/10/30 10:08:08;;;;;;;6.85;2.38;;;15.00;99.90;;;;;;4263797;27;20046;-59
2023/10/30 10:10:10;;;;;;;5.03;2.15;;;15.00;99.90;;;;;;4264635;27;20039;-60
2023/10/30 10:12:20;;;;;;;5.15;2.22;;;15.00;99.90;;;;;;4237435;27;20042;-59
2023/10/30 10:14:23;;;;;;;14.88;3.88;;;14.90;99.90;;;;;;4249142;27;20043;-58
2023/10/30 10:16:26;;;;;;;9.02;3.08;;;15.00;99.90;;;;;;4259042;27;20091;-59
2023/10/30 10:18:30;;;;;;;9.13;3.20;;;14.90;99.90;;;;;;4262451;27;20050;-59
2023/10/30 10:20:33;;;;;;;6.55;2.03;;;14.90;99.90;;;;;;4261846;27;20123;-59
2023/10/30 10:22:35;;;;;;;5.25;2.95;;;14.90;99.90;;;;;;4265821;27;20049;-61
2023/10/30 10:24:37;;;;;;;5.85;2.67;;;14.80;99.90;;;;;;4255391;27;20134;-61
2023/10/30 10:26:40;;;;;;;7.03;2.80;;;14.90;99.90;;;;;;4259098;27;20480;-60
2023/10/30 10:28:44;;;;;;;8.82;3.80;;;14.80;99.90;;;;;;4248715;27;20047;-60
2023/10/30 10:30:46;;;;;;;6.38;3.17;;;14.80;99.90;;;;;;4266090;27;20393;-60
2023/10/30 10:32:49;;;;;;;6.28;2.85;;;14.80;99.90;;;;;;4266069;27;20043;-60